Time;durP1;ratioP1;P1;durP2;ratioP2;P2;SDS_P1;SDS_P2;PMS_P1;PMS_P2;Temp;Humidity;BMP_temperature;BMP_pressure;BME280_temperature;BME280_humidity;BME280_pressure;Samples;Min_cycle;Max_cycle;Signal;HPM_P1;HPM_P2
2021/01/25 00:02:10;;;;;;;3.63;2.42;;;;;;;2.07;79.04;97984.84;4954489;29;20051;-33
2021/01/25 00:04:42;;;;;;;3.15;2.38;;;;;;;2.06;78.66;97972.88;4956104;28;20038;-33
2021/01/25 00:07:07;;;;;;;2.50;1.90;;;;;;;2.05;78.43;97983.06;4956093;28;20175;-33
2021/01/25 00:09:38;;;;;;;2.30;1.70;;;;;;;2.02;78.57;97980.47;4955839;28;20431;-33
2021/01/25 00:12:07;;;;;;;3.60;2.75;;;;;;;2.02;78.24;97976.22;4955877;28;20519;-33
2021/01/25 00:14:35;;;;;;;3.42;1.92;;;;;;;2.02;78.59;97978.78;4954877;28;20083;-33
2021/01/25 00:17:03;;;;;;;3.28;1.67;;;;;;;2.00;78.70;97985.56;4955699;28;20035;-34
2021/01/25 00:19:31;;;;;;;4.93;2.50;;;;;;;2.00;78.49;97985.56;4955527;28;20134;-33
2021/01/25 00:22:00;;;;;;;2.58;1.92;;;;;;;2.01;78.84;97983.88;4954529;28;20039;-33
2021/01/25 00:24:25;;;;;;;2.85;1.98;;;;;;;2.01;78.55;97987.28;4955861;28;20086;-33
2021/01/25 00:26:54;;;;;;;2.38;1.90;;;;;;;2.02;78.84;97983.88;4954374;28;20399;-33
2021/01/25 00:29:19;;;;;;;2.63;1.85;;;;;;;2.03;78.75;97994.94;4955432;29;20039;-33
2021/01/25 00:31:47;;;;;;;4.68;1.73;;;;;;;2.02;78.82;97983.88;4970655;28;20039;-33
2021/01/25 00:34:15;;;;;;;2.45;2.03;;;;;;;1.99;78.81;97983.81;4955560;29;20077;-33
2021/01/25 00:36:41;;;;;;;2.72;1.98;;;;;;;2.00;79.13;97983.00;4953902;28;20082;-33
2021/01/25 00:39:12;;;;;;;3.15;1.85;;;;;;;2.01;78.84;97987.28;4954571;28;20502;-33
2021/01/25 00:41:37;;;;;;;3.83;1.92;;;;;;;2.00;79.18;97985.56;4955622;28;20145;-33
2021/01/25 00:44:06;;;;;;;2.13;1.63;;;;;;;1.96;78.69;97984.66;4954274;28;20496;-33
2021/01/25 00:46:31;;;;;;;2.83;1.90;;;;;;;1.98;79.65;97993.19;4970400;28;20047;-33
2021/01/25 00:48:57;;;;;;;3.05;2.00;;;;;;;1.97;79.08;97993.16;4954063;29;20035;-33
2021/01/25 00:51:22;;;;;;;2.60;2.10;;;;;;;1.95;79.19;97992.25;4955566;28;20035;-33
2021/01/25 00:53:48;;;;;;;2.58;1.92;;;;;;;1.98;79.21;97994.88;4955417;28;20083;-33
2021/01/25 00:56:14;;;;;;;2.63;2.03;;;;;;;1.93;79.02;97992.25;4955414;28;20040;-33
2021/01/25 00:58:42;;;;;;;3.10;2.13;;;;;;;1.94;79.38;97996.53;4955388;28;20126;-33
2021/01/25 01:01:09;;;;;;;2.38;1.75;;;;;;;1.96;79.07;98004.22;4955110;29;20521;-34
2021/01/25 01:03:35;;;;;;;3.90;2.00;;;;;;;2.00;79.09;98006.00;4955033;29;20055;-33
2021/01/25 01:06:04;;;;;;;4.20;2.50;;;;;;;2.01;79.08;98001.75;4955263;28;20035;-33
2021/01/25 01:08:36;;;;;;;3.47;2.38;;;;;;;1.95;79.24;98000.81;4955280;29;20039;-33
2021/01/25 01:11:03;;;;;;;3.50;2.15;;;;;;;2.01;79.39;98005.16;4953872;29;20039;-33
2021/01/25 01:13:32;;;;;;;2.83;2.35;;;;;;;2.01;79.27;98006.88;4955155;28;20031;-33
2021/01/25 01:15:58;;;;;;;4.25;2.28;;;;;;;2.02;79.16;98009.44;4953958;29;20071;-33
2021/01/25 01:18:23;;;;;;;3.35;2.42;;;;;;;2.00;78.73;98008.53;4955228;28;20423;-33
2021/01/25 01:20:49;;;;;;;3.30;2.45;;;;;;;1.99;79.30;98006.81;4955364;28;20046;-33
2021/01/25 01:23:15;;;;;;;4.28;2.70;;;;;;;1.97;78.92;98014.47;4955161;28;20483;-33
2021/01/25 01:25:42;;;;;;;3.05;2.38;;;;;;;1.95;78.76;98013.59;4954911;28;20043;-33
2021/01/25 01:28:08;;;;;;;3.83;2.83;;;;;;;1.96;79.43;98020.41;4955134;28;20118;-33
2021/01/25 01:30:36;;;;;;;4.32;2.30;;;;;;;1.98;79.02;98008.53;4954799;28;20110;-33
2021/01/25 01:33:05;;;;;;;3.92;2.63;;;;;;;2.00;78.83;98020.47;4954995;28;20050;-33
2021/01/25 01:35:35;;;;;;;3.08;2.10;;;;;;;2.00;79.02;98020.47;4954918;28;20048;-33
2021/01/25 01:38:03;;;;;;;3.45;2.63;;;;;;;1.98;78.83;98017.88;4955330;28;20036;-33
2021/01/25 01:40:31;;;;;;;3.25;2.55;;;;;;;1.98;79.17;98028.09;4954903;28;20490;-33
2021/01/25 01:42:56;;;;;;;4.15;2.75;;;;;;;1.99;79.00;98032.38;4953790;29;20171;-33
2021/01/25 01:45:25;;;;;;;3.97;2.80;;;;;;;2.03;79.23;98039.28;4954906;28;20083;-33
2021/01/25 01:47:51;;;;;;;3.33;2.60;;;;;;;2.07;78.99;98040.19;4957028;28;20031;-33
2021/01/25 01:50:16;;;;;;;3.67;2.58;;;;;;;2.09;79.21;98041.06;4958586;28;20039;-33
2021/01/25 01:52:42;;;;;;;3.55;2.45;;;;;;;2.10;78.89;98035.13;4958267;28;20035;-33
2021/01/25 01:55:08;;;;;;;4.57;2.33;;;;;;;2.07;79.33;98043.63;4958271;28;20035;-33
2021/01/25 01:57:39;;;;;;;3.47;2.65;;;;;;;2.08;79.29;98042.78;4958626;28;20479;-33
2021/01/25 02:00:08;;;;;;;3.72;2.65;;;;;;;2.13;79.28;98042.84;4958368;28;20126;-33
2021/01/25 02:02:36;;;;;;;4.57;2.40;;;;;;;2.12;79.08;98041.97;4958443;28;20086;-33
2021/01/25 02:05:03;;;;;;;2.75;2.22;;;;;;;2.12;79.01;98044.53;4958119;28;20106;-33
2021/01/25 02:07:31;;;;;;;4.53;2.47;;;;;;;2.09;79.07;98047.06;4956771;28;20046;-33
2021/01/25 02:09:59;;;;;;;8.50;2.80;;;;;;;2.10;79.11;98055.56;4956751;28;20399;-33
2021/01/25 02:12:28;;;;;;;5.03;2.90;;;;;;;2.13;78.80;98059.03;4956689;28;20501;-33
2021/01/25 02:14:53;;;;;;;3.60;2.50;;;;;;;2.15;79.14;98061.63;4958318;28;20043;-33
2021/01/25 02:17:21;;;;;;;6.65;3.70;;;;;;;2.15;79.18;98059.09;4957953;28;20046;-33
2021/01/25 02:20:10;;;;;;;4.32;2.70;;;;;;;2.16;79.37;98068.47;4958111;28;20039;-33
2021/01/25 02:22:35;;;;;;;6.07;3.58;;;;;;;2.15;79.34;98066.75;4956615;29;20039;-33
2021/01/25 02:25:27;;;;;;;5.03;3.00;;;;;;;2.15;79.32;98070.97;4956684;29;20042;-33
2021/01/25 02:27:54;;;;;;;4.25;3.00;;;;;;;2.17;78.89;98070.19;4958056;28;20043;-33
2021/01/25 02:30:20;;;;;;;4.13;2.72;;;;;;;2.18;78.98;98078.72;4958099;28;20043;-33
2021/01/25 02:32:47;;;;;;;4.53;3.03;;;;;;;2.18;79.29;98071.88;4957724;28;20043;-33
2021/01/25 02:35:17;;;;;;;5.80;3.33;;;;;;;2.22;79.34;98080.50;4972881;28;20035;-34
2021/01/25 02:37:45;;;;;;;3.90;2.90;;;;;;;2.19;79.32;98077.88;4956448;29;20078;-33
2021/01/25 02:40:13;;;;;;;4.07;3.00;;;;;;;2.19;79.36;98085.56;4957624;28;20091;-33
2021/01/25 02:42:40;;;;;;;4.50;3.15;;;;;;;2.22;79.27;98083.06;4957214;28;20054;-33
2021/01/25 02:45:07;;;;;;;3.72;2.90;;;;;;;2.20;79.64;98077.06;4957249;28;20039;-33
2021/01/25 02:47:37;;;;;;;3.85;2.83;;;;;;;2.16;79.08;98085.50;4971973;28;20487;-33
2021/01/25 02:50:07;;;;;;;4.45;3.15;;;;;;;2.16;79.50;98088.03;4956297;29;20039;-33
2021/01/25 02:52:33;;;;;;;4.78;3.53;;;;;;;2.20;79.24;98097.50;4957038;28;20105;-33
2021/01/25 02:55:01;;;;;;;3.80;2.85;;;;;;;2.16;79.22;98094.03;4956137;28;20491;-33
2021/01/25 02:57:27;;;;;;;7.10;3.17;;;;;;;2.15;79.34;98094.88;4957172;28;20035;-33
2021/01/25 02:59:52;;;;;;;4.35;2.80;;;;;;;2.19;79.27;98096.63;4956700;28;20043;-33
2021/01/25 03:02:18;;;;;;;5.35;3.22;;;;;;;2.20;79.50;98097.50;4957212;28;20368;-33
2021/01/25 03:04:47;;;;;;;4.95;2.88;;;;;;;2.22;79.36;98100.94;4957068;28;20067;-33
2021/01/25 03:07:16;;;;;;;3.03;2.60;;;;;;;2.21;78.92;98102.63;4957378;28;20042;-33
2021/01/25 03:09:43;;;;;;;3.83;2.85;;;;;;;2.26;79.25;98100.16;4956185;28;20499;-33
2021/01/25 03:12:09;;;;;;;4.65;2.95;;;;;;;2.23;79.31;98106.06;4956813;28;20380;-33
2021/01/25 03:14:44;;;;;;;4.90;3.08;;;;;;;2.22;79.10;98103.50;4955536;28;20142;-33
2021/01/25 03:17:12;;;;;;;6.15;3.20;;;;;;;2.24;79.38;98102.69;4956725;29;20039;-33
2021/01/25 03:19:38;;;;;;;4.40;2.88;;;;;;;2.23;79.25;98116.31;4957175;28;20035;-33
2021/01/25 03:22:03;;;;;;;4.90;2.78;;;;;;;2.21;79.15;98112.00;4956851;28;20058;-33
2021/01/25 03:24:31;;;;;;;5.63;3.20;;;;;;;2.22;79.51;98114.56;4955708;28;20086;-33
2021/01/25 03:27:00;;;;;;;4.50;3.05;;;;;;;2.25;78.98;98111.22;4956672;28;20372;-33
2021/01/25 03:29:28;;;;;;;3.97;3.20;;;;;;;2.24;79.21;98117.19;4955322;28;20047;-33
2021/01/25 03:31:59;;;;;;;3.63;2.88;;;;;;;2.24;79.53;98112.06;4956288;28;20035;-33
2021/01/25 03:34:25;;;;;;;3.25;2.80;;;;;;;2.25;79.45;98119.75;4957116;28;20094;-33
2021/01/25 03:36:51;;;;;;;4.25;3.10;;;;;;;2.25;79.29;98122.31;4955302;28;20027;-33
2021/01/25 03:39:19;;;;;;;4.43;3.05;;;;;;;2.24;79.23;98114.63;4956561;28;20495;-33
2021/01/25 03:41:48;;;;;;;3.40;3.10;;;;;;;2.30;79.22;98124.94;4956611;28;20114;-33
2021/01/25 03:44:14;;;;;;;4.32;2.83;;;;;;;2.30;79.54;98118.97;4956432;28;20395;-33
2021/01/25 03:46:45;;;;;;;4.40;3.63;;;;;;;2.28;79.31;98126.59;4956311;28;20079;-33
2021/01/25 03:49:14;;;;;;;3.10;2.55;;;;;;;2.28;79.61;98131.72;4971522;28;20039;-33
2021/01/25 03:51:42;;;;;;;5.90;2.97;;;;;;;2.26;79.29;98130.81;4955083;28;20035;-33
2021/01/25 03:54:10;;;;;;;3.42;2.75;;;;;;;2.25;79.56;98127.41;4956322;28;20066;-33
2021/01/25 03:56:38;;;;;;;4.60;2.85;;;;;;;2.25;79.50;98136.81;4970951;28;20045;-33
2021/01/25 03:59:07;;;;;;;4.53;3.00;;;;;;;2.24;79.36;98133.38;4955898;28;20483;-33
2021/01/25 04:01:33;;;;;;;3.53;3.03;;;;;;;2.23;79.38;98138.47;4955339;28;20603;-33
2021/01/25 04:04:01;;;;;;;3.67;2.70;;;;;;;2.24;79.37;98146.16;4971486;28;20035;-33
2021/01/25 04:06:29;;;;;;;4.00;2.90;;;;;;;2.21;79.54;98146.09;4956307;28;20039;-33
2021/01/25 04:08:57;;;;;;;3.70;3.00;;;;;;;2.22;79.76;98154.63;4955657;28;20043;-33
2021/01/25 04:11:23;;;;;;;11.98;3.40;;;;;;;2.24;79.99;98158.09;4955865;28;20483;-34
2021/01/25 04:13:53;;;;;;;3.78;2.70;;;;;;;2.28;80.04;98159.84;4970510;28;20047;-33
2021/01/25 04:16:21;;;;;;;4.00;3.20;;;;;;;2.28;79.74;98155.59;4955942;28;20047;-33
2021/01/25 04:18:49;;;;;;;4.70;3.47;;;;;;;2.28;79.83;98164.94;4955783;28;20036;-33
2021/01/25 04:21:14;;;;;;;5.38;3.35;;;;;;;2.27;79.44;98173.44;4954622;28;20039;-33
2021/01/25 04:23:40;;;;;;;4.53;3.92;;;;;;;2.23;79.61;98161.47;4955811;28;20038;-33
2021/01/25 04:26:10;;;;;;;4.03;3.45;;;;;;;2.22;79.51;98170.81;4955506;28;20066;-33
2021/01/25 04:28:35;;;;;;;4.93;3.53;;;;;;;2.25;79.94;98185.38;4956030;28;20035;-33
2021/01/25 04:31:01;;;;;;;5.32;3.75;;;;;;;2.31;79.59;98185.47;4954314;29;20035;-33
2021/01/25 04:33:27;;;;;;;5.03;4.00;;;;;;;2.29;79.77;98189.69;4938498;29;20042;-33
2021/01/25 04:35:52;;;;;;;4.65;4.00;;;;;;;2.24;79.90;98181.94;4955844;29;20043;-33
2021/01/25 04:38:18;;;;;;;4.57;4.05;;;;;;;2.28;79.71;98187.97;4955153;28;20399;-33
2021/01/25 04:40:45;;;;;;;4.78;3.70;;;;;;;2.26;79.93;98189.63;4954330;29;20039;-33
2021/01/25 04:43:12;;;;;;;4.85;3.72;;;;;;;2.30;79.89;98190.56;4955330;28;20039;-33
2021/01/25 04:45:41;;;;;;;4.50;3.83;;;;;;;2.33;79.81;98193.19;4955838;28;20063;-33
2021/01/25 04:48:09;;;;;;;4.95;4.10;;;;;;;2.32;80.12;98196.56;4955764;28;20387;-33
2021/01/25 04:50:37;;;;;;;5.10;4.55;;;;;;;2.30;79.86;98211.00;4938299;29;20035;-33
2021/01/25 04:53:04;;;;;;;6.55;3.90;;;;;;;2.32;80.02;98202.53;4955292;28;20031;-33
2021/01/25 04:55:33;;;;;;;5.25;4.25;;;;;;;2.32;80.24;98209.34;4954052;29;20043;-34
2021/01/25 04:58:00;;;;;;;6.63;4.30;;;;;;;2.28;80.05;98209.28;4955075;28;20050;-33
2021/01/25 05:00:26;;;;;;;5.75;4.47;;;;;;;2.29;80.19;98215.25;4955561;28;20039;-33
2021/01/25 05:02:54;;;;;;;6.03;4.90;;;;;;;2.28;80.00;98214.41;4955400;28;20054;-33
2021/01/25 05:05:22;;;;;;;6.22;5.03;;;;;;;2.31;80.09;98223.81;4955339;28;20035;-33
2021/01/25 05:07:50;;;;;;;6.90;4.95;;;;;;;2.29;80.07;98220.38;4954293;29;20379;-33
2021/01/25 05:10:16;;;;;;;5.70;4.53;;;;;;;2.28;80.23;98227.19;4954994;28;20049;-33
2021/01/25 05:12:50;;;;;;;6.38;4.78;;;;;;;2.30;80.16;98236.59;4954420;28;20039;-33
2021/01/25 05:15:25;;;;;;;7.07;5.65;;;;;;;2.31;80.29;98238.31;4955101;28;20039;-33
2021/01/25 05:17:50;;;;;;;8.23;5.18;;;;;;;2.32;80.20;98243.44;4954026;29;20047;-33
2021/01/25 05:20:29;;;;;;;6.90;5.50;;;;;;;2.28;80.16;98245.09;4954721;28;20040;-33
2021/01/25 05:22:56;;;;;;;6.38;4.90;;;;;;;2.28;80.54;98246.75;4957361;28;20218;-33
2021/01/25 05:25:31;;;;;;;6.63;5.30;;;;;;;2.31;80.51;98256.22;4958974;28;20483;-33
2021/01/25 05:28:00;;;;;;;7.90;5.10;;;;;;;2.33;80.02;98257.09;4942017;29;20060;-33
2021/01/25 05:30:27;;;;;;;7.25;5.95;;;;;;;2.30;80.16;98259.59;4974211;28;20114;-33
2021/01/25 05:32:55;;;;;;;11.18;6.47;;;;;;;2.31;80.38;98257.06;4958598;28;20098;-33
2021/01/25 05:35:31;;;;;;;8.10;6.45;;;;;;;2.31;80.10;98264.72;4958578;28;20043;-33
2021/01/25 05:37:57;;;;;;;6.38;5.30;;;;;;;2.32;80.64;98269.00;4959024;28;20122;-33
2021/01/25 05:40:27;;;;;;;6.95;5.88;;;;;;;2.31;80.12;98272.41;4958899;28;20059;-33
2021/01/25 05:42:56;;;;;;;6.22;5.43;;;;;;;2.32;80.43;98281.78;4958689;28;20042;-33
2021/01/25 05:45:27;;;;;;;9.02;6.97;;;;;;;2.34;79.82;98284.38;4958255;28;20039;-33
2021/01/25 05:47:53;;;;;;;6.63;5.53;;;;;;;2.34;79.83;98275.03;4958545;28;20043;-33
2021/01/25 05:50:25;;;;;;;9.57;6.57;;;;;;;2.34;80.39;98277.56;4958298;29;20534;-33
2021/01/25 05:52:55;;;;;;;8.70;6.18;;;;;;;2.32;80.13;98281.78;4973376;28;20034;-33
2021/01/25 05:55:21;;;;;;;6.75;5.90;;;;;;;2.34;80.80;98284.38;4973258;28;20039;-33
2021/01/25 05:57:52;;;;;;;10.00;6.20;;;;;;;2.30;80.68;98296.22;4973368;28;20046;-33
2021/01/25 06:00:22;;;;;;;7.47;6.10;;;;;;;2.32;80.90;98286.91;4957208;29;20043;-33
2021/01/25 06:02:50;;;;;;;8.60;6.57;;;;;;;2.31;80.89;98292.84;4957137;28;20055;-33
2021/01/25 06:05:33;;;;;;;7.43;6.22;;;;;;;2.33;80.24;98290.34;4958214;28;20070;-33
2021/01/25 06:08:03;;;;;;;7.35;6.13;;;;;;;2.33;80.54;98296.31;4958133;28;20043;-33
2021/01/25 06:10:41;;;;;;;6.72;5.95;;;;;;;2.34;80.54;98298.03;4958241;28;20042;-33
2021/01/25 06:13:14;;;;;;;8.52;7.22;;;;;;;2.34;80.42;98297.16;4957544;29;20130;-33
2021/01/25 06:15:41;;;;;;;9.20;6.60;;;;;;;2.32;80.47;98303.97;4958187;28;20043;-33
2021/01/25 06:18:06;;;;;;;8.60;7.18;;;;;;;2.32;80.40;98307.34;4957974;28;20067;-33
2021/01/25 06:20:34;;;;;;;8.60;7.13;;;;;;;2.31;80.69;98313.31;4957861;28;20035;-33
2021/01/25 06:23:03;;;;;;;8.50;6.85;;;;;;;2.32;80.39;98316.75;4957971;28;20549;-33
2021/01/25 06:25:29;;;;;;;10.55;6.88;;;;;;;2.29;80.08;98317.50;4957360;28;20035;-33
2021/01/25 06:28:00;;;;;;;9.63;7.88;;;;;;;2.28;80.64;98324.34;4958030;28;20044;-34
2021/01/25 06:30:26;;;;;;;11.52;7.68;;;;;;;2.31;80.31;98325.25;4972794;28;20034;-33
2021/01/25 06:32:54;;;;;;;9.32;6.80;;;;;;;2.33;80.42;98329.53;4956255;28;20479;-33
2021/01/25 06:35:20;;;;;;;10.15;6.53;;;;;;;2.32;80.63;98325.25;4956378;29;20524;-33
2021/01/25 06:37:57;;;;;;;8.65;7.30;;;;;;;2.33;80.83;98328.69;4957424;28;20482;-33
2021/01/25 06:40:25;;;;;;;11.07;8.63;;;;;;;2.33;80.92;98336.38;4957465;28;20039;-33
2021/01/25 06:42:54;;;;;;;10.30;8.35;;;;;;;2.35;80.30;98344.91;4972145;28;20046;-33
2021/01/25 06:45:25;;;;;;;9.05;7.43;;;;;;;2.35;80.51;98345.78;4957441;28;20039;-33
2021/01/25 06:47:51;;;;;;;9.43;7.80;;;;;;;2.36;80.40;98350.06;4972579;28;20522;-33
2021/01/25 06:50:18;;;;;;;10.00;8.00;;;;;;;2.33;80.05;98347.44;4972481;28;20511;-33
2021/01/25 06:52:47;;;;;;;8.80;7.53;;;;;;;2.35;80.39;98352.56;4972260;28;20094;-33
2021/01/25 06:55:16;;;;;;;12.75;8.48;;;;;;;2.34;80.44;98367.06;4956086;28;20041;-33
2021/01/25 06:57:46;;;;;;;10.02;7.93;;;;;;;2.34;80.55;98364.50;4957628;28;20043;-33
2021/01/25 07:00:14;;;;;;;8.88;7.70;;;;;;;2.32;80.41;98367.88;4957512;28;20039;-33
2021/01/25 07:02:59;;;;;;;10.38;7.97;;;;;;;2.32;80.30;98384.06;4955697;28;20051;-33
2021/01/25 07:05:30;;;;;;;9.35;8.10;;;;;;;2.30;80.24;98383.16;4956934;28;20066;-33
2021/01/25 07:08:24;;;;;;;11.73;8.00;;;;;;;2.31;80.55;98397.69;4972237;28;20517;-33
2021/01/25 07:10:53;;;;;;;11.50;8.98;;;;;;;2.31;80.54;98397.69;4956698;28;20559;-33
2021/01/25 07:13:23;;;;;;;13.48;9.18;;;;;;;2.34;80.67;98397.75;4955874;29;20035;-33
2021/01/25 07:15:48;;;;;;;11.90;9.00;;;;;;;2.31;80.68;98407.06;4956712;28;20043;-33
2021/01/25 07:18:22;;;;;;;10.48;9.18;;;;;;;2.30;80.03;98406.16;4956777;28;20398;-33
2021/01/25 07:20:53;;;;;;;14.35;10.57;;;;;;;2.26;80.45;98404.38;4957038;28;20151;-33
2021/01/25 07:23:23;;;;;;;13.93;9.35;;;;;;;2.28;80.80;98413.81;4971109;28;20035;-33
2021/01/25 07:25:59;;;;;;;12.65;8.93;;;;;;;2.28;81.18;98425.72;4955635;28;20153;-34
2021/01/25 07:28:26;;;;;;;12.32;9.15;;;;;;;2.31;80.78;98433.47;4957170;28;20074;-33
2021/01/25 07:30:55;;;;;;;12.65;10.68;;;;;;;2.29;80.32;98440.22;4956732;28;20043;-33
2021/01/25 07:33:24;;;;;;;12.77;9.13;;;;;;;2.30;80.78;98436.84;4956802;28;20041;-33
2021/01/25 07:35:51;;;;;;;13.13;9.68;;;;;;;2.30;80.72;98451.34;4956878;28;20035;-33
2021/01/25 07:38:24;;;;;;;13.55;8.93;;;;;;;2.29;80.50;98453.03;4955510;28;20114;-33
2021/01/25 07:40:50;;;;;;;11.73;9.63;;;;;;;2.31;81.13;98451.38;4956560;28;20043;-33
2021/01/25 07:43:17;;;;;;;12.15;9.00;;;;;;;2.31;80.56;98456.47;4956444;28;20123;-33
2021/01/25 07:45:46;;;;;;;14.15;9.98;;;;;;;2.34;80.50;98466.78;4956332;28;20074;-33
2021/01/25 07:48:15;;;;;;;13.52;10.38;;;;;;;2.30;80.25;98470.09;4956024;28;20407;-33
2021/01/25 07:50:52;;;;;;;13.40;9.77;;;;;;;2.30;80.84;98472.66;4955858;28;20035;-33
2021/01/25 07:53:21;;;;;;;13.18;10.50;;;;;;;2.31;81.02;98478.66;4956199;28;20027;-33
2021/01/25 07:55:53;;;;;;;12.70;10.45;;;;;;;2.32;80.76;98483.78;4970611;28;20090;-33
2021/01/25 07:58:20;;;;;;;12.10;9.73;;;;;;;2.33;80.60;98484.66;4971024;28;20113;-33
2021/01/25 08:00:48;;;;;;;14.90;10.75;;;;;;;2.33;81.07;98500.84;4956238;28;20042;-33
2021/01/25 08:03:30;;;;;;;12.65;9.98;;;;;;;2.32;80.35;98500.81;4955977;28;20055;-34
2021/01/25 08:05:59;;;;;;;13.52;9.95;;;;;;;2.31;80.94;98509.31;4956101;28;20043;-34
2021/01/25 08:08:32;;;;;;;12.18;10.00;;;;;;;2.29;80.71;98514.38;4939071;29;20491;-33
2021/01/25 08:11:05;;;;;;;12.90;10.20;;;;;;;2.29;81.00;98524.59;4956086;28;20064;-33
2021/01/25 08:13:52;;;;;;;13.25;9.70;;;;;;;2.31;80.96;98524.66;4954905;29;20042;-33
2021/01/25 08:16:26;;;;;;;12.07;9.55;;;;;;;2.29;80.80;98524.59;4955405;29;20031;-33
2021/01/25 08:18:57;;;;;;;14.95;10.85;;;;;;;2.28;81.07;98533.09;4970505;28;20049;-33
2021/01/25 08:21:33;;;;;;;13.95;10.95;;;;;;;2.25;80.94;98533.91;4955852;28;20078;-33
2021/01/25 08:24:06;;;;;;;15.48;12.05;;;;;;;2.18;80.70;98532.00;4955957;28;20042;-33
2021/01/25 08:26:38;;;;;;;14.18;10.90;;;;;;;2.23;80.41;98543.22;4955649;28;20035;-33
2021/01/25 08:29:14;;;;;;;13.55;11.00;;;;;;;2.25;80.61;98540.72;4955670;29;20031;-33
2021/01/25 08:31:46;;;;;;;16.90;11.75;;;;;;;2.22;81.01;98545.75;4954694;29;20039;-33
2021/01/25 08:34:29;;;;;;;16.40;12.73;;;;;;;2.22;81.30;98551.72;4954304;28;20045;-33
2021/01/25 08:37:23;;;;;;;13.25;11.13;;;;;;;2.25;80.79;98558.63;4954520;29;20050;-33
2021/01/25 08:39:54;;;;;;;15.48;9.73;;;;;;;2.26;81.13;98565.44;4955659;28;20502;-33
2021/01/25 08:42:26;;;;;;;13.38;10.90;;;;;;;2.26;80.80;98576.53;4955653;28;20035;-33
2021/01/25 08:45:06;;;;;;;15.73;10.90;;;;;;;2.29;81.01;98580.84;4955543;28;20071;-33
2021/01/25 08:47:32;;;;;;;14.85;11.77;;;;;;;2.30;81.36;98580.03;4954286;29;20058;-33
2021/01/25 08:50:15;;;;;;;15.75;11.82;;;;;;;2.32;80.81;98590.31;4955295;28;20122;-33
2021/01/25 08:52:45;;;;;;;15.18;11.90;;;;;;;2.37;81.26;98596.41;4955244;29;20147;-33
2021/01/25 08:55:25;;;;;;;14.95;11.95;;;;;;;2.39;80.54;98603.31;4954002;29;20402;-33
2021/01/25 08:57:57;;;;;;;13.75;11.10;;;;;;;2.41;80.81;98611.84;4954806;28;20042;-33
2021/01/25 09:00:28;;;;;;;17.73;13.85;;;;;;;2.41;80.90;98616.97;4955820;28;20545;-33
2021/01/25 09:02:59;;;;;;;17.95;13.75;;;;;;;2.37;81.12;98622.84;4955638;28;20134;-33
2021/01/25 09:05:28;;;;;;;16.75;13.57;;;;;;;2.37;81.15;98625.41;4954239;29;20027;-33
2021/01/25 09:07:57;;;;;;;20.52;14.60;;;;;;;2.36;81.06;98628.78;4955447;29;20062;-33
2021/01/25 09:10:25;;;;;;;17.45;12.52;;;;;;;2.36;81.23;98633.91;4953816;28;20495;-33
2021/01/25 09:12:55;;;;;;;17.00;13.10;;;;;;;2.35;81.32;98632.16;4970469;28;20114;-33
2021/01/25 09:15:25;;;;;;;19.98;14.73;;;;;;;2.34;81.20;98637.22;4954169;29;20075;-33
2021/01/25 09:17:54;;;;;;;16.45;12.18;;;;;;;2.37;81.15;98643.31;4955476;28;20041;-33
2021/01/25 09:20:22;;;;;;;19.48;14.02;;;;;;;2.39;81.31;98645.88;4954744;28;20043;-33
2021/01/25 09:22:51;;;;;;;18.85;13.30;;;;;;;2.41;81.42;98655.31;4954019;28;20044;-33
2021/01/25 09:25:21;;;;;;;20.50;15.07;;;;;;;2.42;81.15;98657.06;4953949;29;20085;-33
2021/01/25 09:27:52;;;;;;;20.35;14.77;;;;;;;2.42;80.85;98662.16;4955771;28;20105;-33
2021/01/25 09:30:25;;;;;;;23.15;15.23;;;;;;;2.42;80.86;98667.28;4954921;28;20519;-33
2021/01/25 09:32:51;;;;;;;17.25;12.93;;;;;;;2.43;81.19;98669.03;4955006;28;20035;-33
2021/01/25 09:35:21;;;;;;;20.15;14.60;;;;;;;2.39;81.06;98669.78;4954977;28;20042;-33
2021/01/25 09:37:49;;;;;;;24.38;15.63;;;;;;;2.43;81.34;98676.69;4953880;29;20046;-33
2021/01/25 09:40:16;;;;;;;22.70;15.60;;;;;;;2.41;81.13;98680.91;4954642;28;20562;-33
2021/01/25 09:42:44;;;;;;;20.23;14.98;;;;;;;2.42;80.68;98684.34;4953734;29;20114;-33
2021/01/25 09:45:14;;;;;;;18.80;14.02;;;;;;;2.42;80.95;98692.88;4953702;28;20526;-33
2021/01/25 09:47:43;;;;;;;23.17;15.35;;;;;;;2.41;81.34;98701.34;4953484;29;20049;-33
2021/01/25 09:50:13;;;;;;;22.52;15.63;;;;;;;2.39;81.03;98714.94;4953270;28;20200;-34
2021/01/25 09:52:43;;;;;;;21.17;14.50;;;;;;;2.41;81.23;98724.38;4954925;28;20046;-33
2021/01/25 09:55:16;;;;;;;21.33;14.85;;;;;;;2.38;81.43;98729.44;4953455;29;20122;-37
2021/01/25 09:57:42;;;;;;;22.67;15.30;;;;;;;2.35;81.13;98734.44;4955096;28;20122;-33
2021/01/25 10:00:12;;;;;;;23.63;16.73;;;;;;;2.37;81.32;98745.59;4953600;29;20290;-33
2021/01/25 10:02:41;;;;;;;23.40;15.48;;;;;;;2.40;81.18;98752.47;4954257;28;20051;-34
2021/01/25 10:05:10;;;;;;;26.55;16.50;;;;;;;2.40;81.12;98755.91;4954830;28;20039;-33
2021/01/25 10:07:41;;;;;;;25.58;16.00;;;;;;;2.39;81.18;98760.97;4955089;28;20043;-33
2021/01/25 10:10:14;;;;;;;22.13;15.80;;;;;;;2.40;81.34;98762.69;4958592;28;20047;-33
2021/01/25 10:12:40;;;;;;;25.88;15.20;;;;;;;2.40;81.71;98763.59;4957861;29;20039;-33
2021/01/25 10:15:15;;;;;;;22.52;16.38;;;;;;;2.39;81.37;98772.06;4973087;28;20403;-34
2021/01/25 10:17:40;;;;;;;24.73;16.60;;;;;;;2.39;81.58;98777.19;4957829;28;20039;-34
2021/01/25 10:20:09;;;;;;;23.35;15.75;;;;;;;2.41;81.27;98787.47;4973027;28;20054;-34
2021/01/25 10:22:35;;;;;;;21.98;14.80;;;;;;;2.43;81.42;98786.66;4957885;28;20039;-34
2021/01/25 10:25:01;;;;;;;24.65;15.63;;;;;;;2.44;81.43;98796.06;4957889;28;20450;-33
2021/01/25 10:27:27;;;;;;;24.65;16.75;;;;;;;2.43;81.34;98801.16;4956665;28;20046;-33
2021/01/25 10:29:56;;;;;;;24.95;16.25;;;;;;;2.41;81.42;98795.13;4957324;28;20050;-33
2021/01/25 10:32:21;;;;;;;25.02;17.13;;;;;;;2.43;81.26;98801.16;4969242;28;20419;-33
2021/01/25 10:34:48;;;;;;;23.48;16.40;;;;;;;2.42;81.87;98812.22;4938794;29;20403;-33
2021/01/25 10:37:14;;;;;;;22.65;16.25;;;;;;;2.40;81.11;98814.72;4938480;29;20048;-33
2021/01/25 10:39:42;;;;;;;22.52;16.15;;;;;;;2.38;81.31;98826.59;4938513;29;20055;-33
2021/01/25 10:42:10;;;;;;;23.70;16.05;;;;;;;2.38;81.48;98831.72;4953160;29;20054;-33
2021/01/25 10:44:40;;;;;;;23.17;16.08;;;;;;;2.44;81.25;98842.09;4953027;28;20038;-33
2021/01/25 10:47:12;;;;;;;23.40;16.45;;;;;;;2.43;81.24;98845.50;4938906;29;20040;-33
2021/01/25 10:49:44;;;;;;;22.42;16.75;;;;;;;2.44;81.32;98843.81;4938602;29;20046;-33
2021/01/25 10:52:14;;;;;;;22.33;15.55;;;;;;;2.46;81.36;98849.84;4938421;29;20043;-33
2021/01/25 10:54:43;;;;;;;22.02;15.10;;;;;;;2.47;81.62;98856.69;4953293;29;20035;-33
2021/01/25 10:57:11;;;;;;;22.58;16.40;;;;;;;2.48;81.08;98860.09;4938263;29;20039;-33
2021/01/25 10:59:37;;;;;;;25.27;17.27;;;;;;;2.46;81.16;98860.06;4937900;29;20131;-33
2021/01/25 11:02:05;;;;;;;25.13;16.23;;;;;;;2.48;81.35;98884.00;4938012;29;20454;-33
2021/01/25 11:04:33;;;;;;;24.95;15.70;;;;;;;2.48;81.47;98878.91;4937965;29;20043;-33
2021/01/25 11:07:04;;;;;;;25.10;17.90;;;;;;;2.46;81.13;98892.44;4938081;29;20043;-33
2021/01/25 11:09:37;;;;;;;27.15;17.73;;;;;;;2.44;81.42;98895.81;4937764;29;20035;-33
2021/01/25 11:12:03;;;;;;;25.60;18.05;;;;;;;2.42;81.52;98905.13;4938361;29;20563;-33
2021/01/25 11:14:29;;;;;;;28.02;17.95;;;;;;;2.44;81.12;98900.94;4937888;29;20538;-33
2021/01/25 11:17:02;;;;;;;26.20;17.92;;;;;;;2.46;81.11;98900.13;4937840;29;20126;-33
2021/01/25 11:19:28;;;;;;;25.83;17.75;;;;;;;2.45;81.35;98904.38;4936102;29;20031;-35
2021/01/25 11:21:56;;;;;;;28.00;19.08;;;;;;;2.50;81.23;98910.47;4952430;28;20134;-33
2021/01/25 11:24:25;;;;;;;28.30;19.15;;;;;;;2.50;81.00;98914.75;4936184;29;20062;-33
2021/01/25 11:26:53;;;;;;;26.15;17.27;;;;;;;2.51;81.25;98916.47;4937734;29;20044;-33
2021/01/25 11:29:21;;;;;;;28.20;18.73;;;;;;;2.52;81.31;98915.66;4952383;29;20118;-33
2021/01/25 11:31:46;;;;;;;27.67;19.70;;;;;;;2.50;81.70;98922.41;4937124;29;20130;-33
2021/01/25 11:34:12;;;;;;;24.88;18.52;;;;;;;2.47;81.16;98932.53;4937487;29;20063;-33
2021/01/25 11:36:38;;;;;;;32.83;21.75;;;;;;;2.44;81.56;98930.78;4937531;29;20048;-33
2021/01/25 11:39:07;;;;;;;29.80;20.73;;;;;;;2.47;81.89;98935.09;4937344;29;20440;-33
2021/01/25 11:41:37;;;;;;;28.45;20.45;;;;;;;2.47;81.25;98938.53;4937637;29;20119;-33
2021/01/25 11:44:05;;;;;;;30.08;20.58;;;;;;;2.47;81.68;98942.78;4952020;29;20031;-33
2021/01/25 11:46:33;;;;;;;30.08;20.17;;;;;;;2.50;81.46;98937.75;4952313;28;20040;-33